Time;durP1;ratioP1;P1;durP2;ratioP2;P2;SDS_P1;SDS_P2;PMS_P1;PMS_P2;Temp;Humidity;BMP_temperature;BMP_pressure;BME280_temperature;BME280_humidity;BME280_pressure;Samples;Min_cycle;Max_cycle;Signal;HPM_P1;HPM_P2
2022/07/20 00:01:32;;;;;;;6.90;3.77;;;23.70;35.40;;;;;;5088898;28;20453;-72
2022/07/20 00:04:18;;;;;;;8.30;2.80;;;23.80;35.40;;;;;;5087033;28;21016;-72
2022/07/20 00:07:05;;;;;;;6.70;2.87;;;23.80;36.10;;;;;;5089293;28;20588;-73
2022/07/20 00:12:54;;;;;;;5.47;3.40;;;23.80;35.10;;;;;;5087919;28;20804;-73
2022/07/20 00:15:40;;;;;;;6.17;3.70;;;23.90;35.90;;;;;;5088165;28;20469;-72
2022/07/20 00:18:26;;;;;;;7.83;3.90;;;23.90;34.10;;;;;;5088489;28;20962;-72
2022/07/20 00:21:11;;;;;;;7.73;3.43;;;23.80;34.50;;;;;;5092624;28;20929;-73
2022/07/20 00:23:58;;;;;;;5.20;3.37;;;23.90;34.50;;;;;;5092398;28;20457;-73
2022/07/20 00:26:44;;;;;;;7.00;3.40;;;23.90;35.50;;;;;;5092108;28;20434;-72
2022/07/20 00:29:30;;;;;;;6.37;3.30;;;24.00;32.40;;;;;;5088193;28;20974;-73
2022/07/20 00:32:15;;;;;;;4.50;3.37;;;24.00;33.90;;;;;;5088563;28;20601;-72
2022/07/20 00:35:01;;;;;;;8.53;4.73;;;24.10;34.10;;;;;;5090532;28;20962;-73
2022/07/20 00:37:47;;;;;;;5.03;3.43;;;24.00;34.90;;;;;;5090270;28;20826;-73
2022/07/20 00:40:34;;;;;;;5.20;3.47;;;23.90;33.20;;;;;;5090128;28;20437;-73
2022/07/20 00:43:19;;;;;;;6.67;3.47;;;23.90;35.00;;;;;;5089727;28;20458;-72
2022/07/20 00:46:05;;;;;;;4.97;3.37;;;23.90;35.50;;;;;;5089266;28;20908;-72
2022/07/20 00:48:51;;;;;;;9.23;3.87;;;23.80;33.20;;;;;;5086655;28;20479;-73
2022/07/20 00:51:38;;;;;;;4.00;2.93;;;23.80;35.30;;;;;;5090779;28;20803;-73
2022/07/20 00:54:25;;;;;;;5.50;3.40;;;23.70;34.80;;;;;;5090714;28;20758;-73
2022/07/20 00:57:12;;;;;;;6.80;3.83;;;23.70;35.20;;;;;;5089109;28;20531;-73
2022/07/20 00:59:57;;;;;;;13.07;3.30;;;23.70;35.30;;;;;;5082940;28;20454;-72
2022/07/20 01:02:43;;;;;;;10.13;3.83;;;23.50;36.10;;;;;;5089088;28;20982;-73
2022/07/20 01:05:29;;;;;;;8.30;3.90;;;23.50;36.50;;;;;;5088119;28;20446;-73
2022/07/20 01:08:14;;;;;;;4.70;3.30;;;23.40;37.90;;;;;;5087687;28;20433;-73
2022/07/20 01:11:00;;;;;;;8.90;4.10;;;23.30;38.70;;;;;;5089196;28;20572;-73
2022/07/20 01:13:48;;;;;;;8.47;3.60;;;23.30;39.10;;;;;;5086814;28;20525;-73
2022/07/20 01:16:34;;;;;;;5.03;4.03;;;23.20;38.50;;;;;;5085716;28;20465;-73
2022/07/20 01:19:19;;;;;;;7.20;4.13;;;23.10;38.10;;;;;;5085653;28;20487;-73
2022/07/20 01:22:06;;;;;;;6.80;3.50;;;23.00;40.30;;;;;;5088345;28;20434;-73
2022/07/20 01:24:52;;;;;;;7.30;3.83;;;22.90;38.30;;;;;;5089926;28;21081;-73
2022/07/20 01:27:38;;;;;;;4.70;3.73;;;23.00;38.30;;;;;;5083076;28;20528;-73
2022/07/20 01:30:24;;;;;;;5.00;3.13;;;22.90;39.60;;;;;;5089858;28;20445;-73
2022/07/20 01:33:09;;;;;;;11.13;3.90;;;22.90;40.30;;;;;;5088402;28;20484;-73
2022/07/20 01:35:55;;;;;;;7.80;4.47;;;22.80;39.50;;;;;;5089338;28;20657;-73
2022/07/20 01:38:42;;;;;;;7.90;3.97;;;22.80;40.70;;;;;;5086317;28;20953;-73
2022/07/20 01:41:28;;;;;;;5.67;3.77;;;22.70;42.40;;;;;;5093087;28;20774;-73
2022/07/20 01:44:14;;;;;;;6.70;3.30;;;22.60;39.90;;;;;;5090488;28;20496;-72
2022/07/20 01:47:00;;;;;;;5.30;4.00;;;22.50;42.50;;;;;;5088468;28;20854;-73
2022/07/20 01:49:45;;;;;;;5.93;3.40;;;22.40;42.10;;;;;;5086329;28;20460;-73
2022/07/20 01:52:31;;;;;;;6.80;3.40;;;22.40;44.00;;;;;;5088661;28;20958;-72
2022/07/20 01:55:18;;;;;;;7.93;4.63;;;22.40;39.60;;;;;;5088101;28;20442;-73
2022/07/20 01:58:04;;;;;;;5.67;4.00;;;22.50;42.30;;;;;;5086284;28;20433;-73
2022/07/20 02:00:51;;;;;;;11.33;3.77;;;22.50;40.20;;;;;;5088476;28;20456;-73
2022/07/20 02:03:37;;;;;;;5.90;4.37;;;22.50;42.30;;;;;;5088133;28;20576;-73
2022/07/20 02:06:23;;;;;;;7.10;3.80;;;22.50;42.20;;;;;;5085141;28;20517;-73
2022/07/20 02:09:09;;;;;;;6.00;3.80;;;22.50;41.80;;;;;;5085866;28;20503;-72
2022/07/20 02:11:56;;;;;;;5.50;3.47;;;22.50;42.20;;;;;;5087923;28;20558;-73
2022/07/20 02:14:41;;;;;;;4.47;3.63;;;22.60;42.00;;;;;;5085363;28;20438;-73
2022/07/20 02:17:27;;;;;;;5.93;4.03;;;22.60;42.30;;;;;;5085287;28;20469;-73
2022/07/20 02:20:13;;;;;;;5.57;3.73;;;22.50;39.50;;;;;;5084619;28;20449;-73
2022/07/20 02:22:58;;;;;;;12.10;4.20;;;22.60;39.10;;;;;;5087441;28;20469;-72
2022/07/20 02:25:44;;;;;;;6.47;4.23;;;22.70;40.10;;;;;;5086621;28;20479;-73
2022/07/20 02:28:31;;;;;;;13.53;4.43;;;22.70;41.50;;;;;;5080411;28;20500;-72
2022/07/20 02:31:18;;;;;;;4.80;3.47;;;22.50;40.70;;;;;;5087639;28;20449;-73
2022/07/20 02:34:04;;;;;;;15.93;5.03;;;22.60;40.40;;;;;;5085526;28;21106;-73
2022/07/20 02:36:49;;;;;;;11.10;4.47;;;22.60;40.90;;;;;;5088576;28;20481;-73
2022/07/20 02:39:35;;;;;;;12.53;4.53;;;22.60;41.60;;;;;;5088321;28;20453;-72
2022/07/20 02:42:21;;;;;;;9.30;4.20;;;22.70;40.20;;;;;;5089578;28;20608;-73
2022/07/20 02:45:09;;;;;;;7.83;4.13;;;22.70;42.00;;;;;;5086664;28;20437;-73
2022/07/20 02:48:02;;;;;;;14.43;4.43;;;22.70;38.20;;;;;;5084627;28;21097;-72
2022/07/20 02:50:48;;;;;;;4.70;3.47;;;22.70;40.60;;;;;;5088096;28;20496;-72
2022/07/20 02:53:34;;;;;;;6.03;3.67;;;22.70;39.80;;;;;;5088531;28;20874;-73
2022/07/20 02:56:19;;;;;;;5.97;3.93;;;22.70;38.70;;;;;;5086162;28;20465;-73
2022/07/20 02:59:05;;;;;;;5.93;4.00;;;22.70;40.40;;;;;;5087223;28;20457;-73
2022/07/20 03:01:52;;;;;;;6.37;4.30;;;22.50;40.60;;;;;;5086798;28;21133;-73
2022/07/20 03:04:38;;;;;;;5.20;3.60;;;22.40;42.10;;;;;;5089603;28;20430;-73
2022/07/20 03:07:23;;;;;;;6.57;4.63;;;22.40;42.10;;;;;;5084699;28;20446;-73
2022/07/20 03:10:10;;;;;;;6.93;4.20;;;22.40;42.10;;;;;;5087426;28;20441;-73
2022/07/20 03:12:55;;;;;;;4.97;3.53;;;22.50;40.00;;;;;;5087694;28;20486;-73
2022/07/20 03:15:41;;;;;;;5.53;3.60;;;22.50;41.40;;;;;;5084574;28;20974;-73
2022/07/20 03:18:28;;;;;;;10.77;4.70;;;22.50;41.00;;;;;;5084548;28;20449;-72
2022/07/20 03:21:14;;;;;;;20.30;4.80;;;22.50;41.30;;;;;;5088160;28;20437;-72
2022/07/20 03:24:00;;;;;;;7.53;4.50;;;22.50;41.30;;;;;;5088502;28;20775;-73
2022/07/20 03:26:46;;;;;;;8.50;5.13;;;22.50;42.10;;;;;;5082050;28;20478;-73
2022/07/20 03:29:32;;;;;;;9.60;4.23;;;22.50;42.20;;;;;;5090932;28;20779;-73
2022/07/20 03:32:17;;;;;;;11.27;4.40;;;22.40;42.60;;;;;;5090720;28;20445;-73
2022/07/20 03:35:05;;;;;;;5.73;3.53;;;22.40;43.80;;;;;;5085203;28;20466;-73
2022/07/20 03:37:50;;;;;;;7.77;4.20;;;22.30;41.30;;;;;;5084785;28;20523;-73
2022/07/20 03:40:36;;;;;;;6.63;4.10;;;22.40;42.40;;;;;;5094026;28;20805;-73
2022/07/20 03:43:25;;;;;;;6.27;3.73;;;22.30;42.00;;;;;;5091371;28;20957;-73
2022/07/20 03:46:11;;;;;;;13.20;3.90;;;22.30;43.30;;;;;;5089469;28;20441;-74
2022/07/20 03:48:56;;;;;;;5.00;3.70;;;22.30;42.00;;;;;;5092126;28;20445;-74
2022/07/20 03:51:43;;;;;;;7.93;4.00;;;22.40;42.80;;;;;;5094987;28;20495;-74
2022/07/20 03:54:29;;;;;;;9.23;5.90;;;22.30;42.50;;;;;;5091641;28;20432;-73
2022/07/20 03:57:16;;;;;;;12.23;6.20;;;22.30;43.30;;;;;;5086577;28;20506;-74
2022/07/20 04:00:01;;;;;;;14.10;4.67;;;22.30;43.10;;;;;;5092335;28;20437;-74
2022/07/20 04:02:47;;;;;;;8.80;4.60;;;22.20;43.10;;;;;;5089130;28;20555;-74
2022/07/20 04:05:33;;;;;;;11.23;3.50;;;22.30;44.90;;;;;;5088120;28;20445;-73
2022/07/20 04:08:20;;;;;;;5.93;4.13;;;22.30;44.50;;;;;;5091636;28;20480;-74
2022/07/20 04:11:06;;;;;;;11.00;5.37;;;22.30;45.00;;;;;;5094783;28;20421;-74
2022/07/20 04:13:52;;;;;;;15.43;4.17;;;22.30;45.60;;;;;;5091029;28;20446;-74
2022/07/20 04:16:38;;;;;;;5.23;4.10;;;22.40;45.60;;;;;;5085614;28;20978;-73
2022/07/20 04:19:24;;;;;;;8.10;4.03;;;22.30;46.40;;;;;;5090741;28;20446;-75
2022/07/20 04:22:10;;;;;;;7.80;4.80;;;22.30;46.40;;;;;;5092775;28;20462;-74
2022/07/20 04:24:57;;;;;;;13.00;4.87;;;22.30;45.60;;;;;;5088961;28;20444;-74
2022/07/20 04:27:43;;;;;;;6.50;4.20;;;22.30;46.30;;;;;;5089943;28;20449;-73
2022/07/20 04:30:31;;;;;;;11.73;4.77;;;22.40;49.10;;;;;;5092881;28;20972;-74
2022/07/20 04:33:18;;;;;;;7.57;4.30;;;22.30;47.90;;;;;;5089469;28;20461;-74
2022/07/20 04:36:04;;;;;;;8.17;4.23;;;22.40;47.90;;;;;;5087284;28;20457;-74
2022/07/20 04:38:50;;;;;;;5.10;3.77;;;22.50;48.70;;;;;;5088674;28;20576;-74
2022/07/20 04:41:37;;;;;;;16.63;4.20;;;22.40;48.90;;;;;;5083427;28;20508;-74
2022/07/20 04:44:23;;;;;;;6.93;4.73;;;22.40;49.40;;;;;;5091561;28;20826;-74
2022/07/20 04:47:08;;;;;;;10.63;4.20;;;22.40;51.90;;;;;;5090329;28;20453;-73
2022/07/20 04:49:54;;;;;;;8.47;3.93;;;22.40;49.80;;;;;;5091554;28;20458;-74
2022/07/20 04:52:40;;;;;;;9.13;3.77;;;22.40;52.40;;;;;;5093484;28;20461;-73
2022/07/20 04:55:25;;;;;;;9.43;4.33;;;22.40;54.30;;;;;;5089677;28;20840;-73
2022/07/20 04:58:12;;;;;;;9.63;4.17;;;22.50;55.20;;;;;;5089861;28;20556;-75
2022/07/20 05:00:58;;;;;;;7.33;3.53;;;22.50;54.00;;;;;;5091381;28;20440;-74
2022/07/20 05:03:44;;;;;;;13.10;4.00;;;22.60;54.30;;;;;;5087180;28;21079;-74
2022/07/20 05:06:30;;;;;;;12.17;4.40;;;22.70;54.60;;;;;;5089192;28;21036;-73
2022/07/20 05:09:16;;;;;;;6.80;3.80;;;22.90;56.40;;;;;;5091524;28;20436;-74
2022/07/20 05:12:01;;;;;;;6.20;3.43;;;23.00;57.60;;;;;;5091479;28;20445;-73
2022/07/20 05:14:48;;;;;;;6.90;3.60;;;23.00;56.50;;;;;;5087279;28;20532;-73
2022/07/20 05:17:34;;;;;;;5.00;3.50;;;23.10;56.60;;;;;;5089584;28;20465;-74
2022/07/20 05:20:20;;;;;;;7.10;4.23;;;23.30;59.30;;;;;;5092074;28;20441;-74
2022/07/20 05:23:05;;;;;;;6.37;3.10;;;23.30;57.80;;;;;;5090240;28;21068;-74
2022/07/20 05:25:51;;;;;;;9.17;4.47;;;23.50;59.30;;;;;;5090029;28;20446;-73
2022/07/20 05:28:37;;;;;;;7.03;4.20;;;23.70;58.10;;;;;;5092474;28;20472;-73
2022/07/20 05:31:24;;;;;;;9.33;4.20;;;23.80;60.80;;;;;;5088209;28;20850;-74
2022/07/20 05:34:10;;;;;;;8.50;4.53;;;23.80;57.40;;;;;;5089563;28;20982;-74
2022/07/20 05:36:55;;;;;;;8.60;4.83;;;24.00;58.40;;;;;;5090169;28;21133;-74
2022/07/20 05:39:41;;;;;;;6.67;3.43;;;24.10;51.10;;;;;;5090015;28;20457;-73
2022/07/20 05:42:26;;;;;;;5.27;3.77;;;24.20;53.30;;;;;;5090158;28;20567;-74
2022/07/20 05:45:12;;;;;;;5.87;3.33;;;24.40;52.80;;;;;;5086965;28;20552;-73
2022/07/20 05:47:59;;;;;;;6.50;3.70;;;24.50;51.90;;;;;;5092195;28;20442;-73
2022/07/20 05:50:46;;;;;;;15.43;4.13;;;24.70;52.00;;;;;;5088426;28;20457;-74
2022/07/20 05:53:32;;;;;;;8.90;3.43;;;24.80;54.50;;;;;;5090489;28;20588;-74
2022/07/20 05:56:17;;;;;;;6.30;3.80;;;24.80;50.80;;;;;;5088138;28;20442;-74
2022/07/20 05:59:03;;;;;;;4.90;3.70;;;25.00;52.40;;;;;;5089138;28;20525;-74
2022/07/20 06:01:49;;;;;;;13.97;3.90;;;25.00;50.90;;;;;;5089168;28;20434;-74
2022/07/20 06:04:37;;;;;;;8.83;3.10;;;25.10;55.20;;;;;;5079755;28;20459;-73
2022/07/20 06:07:23;;;;;;;7.33;3.17;;;25.30;53.90;;;;;;5090230;28;21089;-74
2022/07/20 06:10:10;;;;;;;6.57;3.97;;;25.30;49.70;;;;;;5089467;28;20449;-74
2022/07/20 06:12:56;;;;;;;5.63;3.40;;;25.50;51.10;;;;;;5088428;28;20465;-74
2022/07/20 06:15:42;;;;;;;9.43;3.97;;;25.50;49.80;;;;;;5086129;28;20446;-74
2022/07/20 06:18:27;;;;;;;5.43;3.47;;;25.70;53.90;;;;;;5090993;28;20547;-76
2022/07/20 06:21:14;;;;;;;16.40;3.83;;;25.80;52.20;;;;;;5088930;28;20520;-76
2022/07/20 06:24:00;;;;;;;4.30;3.43;;;25.90;48.50;;;;;;5085938;28;21110;-76
2022/07/20 06:26:46;;;;;;;7.20;3.07;;;26.00;52.50;;;;;;5084313;28;20422;-76
2022/07/20 06:29:32;;;;;;;5.70;3.37;;;26.10;50.40;;;;;;5090266;28;20442;-76
2022/07/20 06:32:17;;;;;;;5.23;3.10;;;26.20;50.70;;;;;;5088490;28;20457;-75
2022/07/20 06:35:04;;;;;;;10.13;4.03;;;26.30;53.20;;;;;;5085362;28;20513;-76
2022/07/20 06:37:51;;;;;;;5.57;3.30;;;26.40;48.50;;;;;;5088171;28;20474;-76
2022/07/20 06:40:37;;;;;;;5.87;3.30;;;26.60;46.70;;;;;;5087990;28;20438;-76
2022/07/20 06:43:23;;;;;;;5.40;3.50;;;26.70;49.00;;;;;;5087721;28;20826;-76
2022/07/20 06:46:09;;;;;;;4.87;3.47;;;26.80;46.40;;;;;;5085501;28;20549;-76
2022/07/20 06:48:55;;;;;;;9.07;3.77;;;26.90;46.40;;;;;;5088236;28;20442;-75
2022/07/20 06:51:40;;;;;;;7.60;3.70;;;27.00;46.50;;;;;;5088392;28;20450;-76
2022/07/20 06:54:28;;;;;;;4.73;3.50;;;27.10;46.60;;;;;;5086523;28;20535;-76
2022/07/20 06:57:14;;;;;;;5.73;3.10;;;27.10;41.60;;;;;;5089053;28;20596;-76
2022/07/20 06:59:59;;;;;;;14.87;3.93;;;27.20;45.10;;;;;;5089061;28;20449;-76
2022/07/20 07:02:45;;;;;;;7.50;4.50;;;27.30;42.70;;;;;;5090124;28;20469;-76
2022/07/20 07:05:31;;;;;;;6.00;4.40;;;27.30;41.60;;;;;;5088946;28;20442;-76
2022/07/20 07:08:17;;;;;;;9.17;5.10;;;27.40;36.70;;;;;;5089937;28;20418;-74
2022/07/20 07:11:04;;;;;;;5.97;4.00;;;27.50;36.10;;;;;;5089869;28;20429;-76
2022/07/20 07:13:49;;;;;;;6.33;3.77;;;27.70;38.00;;;;;;5081880;28;20988;-76
2022/07/20 07:16:35;;;;;;;8.93;3.80;;;27.70;36.60;;;;;;5084591;28;20437;-75
2022/07/20 07:19:21;;;;;;;7.50;3.70;;;27.80;33.30;;;;;;5088684;28;20539;-77
2022/07/20 07:22:06;;;;;;;4.93;3.30;;;27.90;32.90;;;;;;5084315;28;20585;-75
2022/07/20 07:24:52;;;;;;;5.73;3.60;;;28.00;32.40;;;;;;5081777;28;20446;-76
2022/07/20 07:27:39;;;;;;;7.23;3.47;;;28.10;30.40;;;;;;5090288;28;20468;-76
2022/07/20 07:30:25;;;;;;;8.03;3.60;;;28.20;31.60;;;;;;5090253;28;20464;-76
2022/07/20 07:33:10;;;;;;;11.03;3.53;;;28.30;29.40;;;;;;5086351;28;20465;-75
2022/07/20 07:35:56;;;;;;;8.17;3.60;;;28.40;34.70;;;;;;5087511;28;20446;-75
2022/07/20 07:38:42;;;;;;;5.70;3.43;;;28.50;33.40;;;;;;5082303;28;20881;-75
2022/07/20 07:41:28;;;;;;;4.23;3.40;;;28.60;34.90;;;;;;5087779;28;20442;-76
2022/07/20 07:44:15;;;;;;;9.23;3.90;;;28.70;33.50;;;;;;5085221;28;20456;-76
2022/07/20 07:47:01;;;;;;;7.97;3.83;;;28.80;31.40;;;;;;5085807;28;20463;-76
2022/07/20 07:49:47;;;;;;;11.60;4.10;;;28.80;31.40;;;;;;5086813;28;20442;-76
2022/07/20 07:52:33;;;;;;;7.77;4.07;;;28.90;28.30;;;;;;5086407;28;20450;-72
2022/07/20 07:55:18;;;;;;;7.13;4.20;;;29.00;27.00;;;;;;5086745;28;20465;-74
2022/07/20 07:58:05;;;;;;;6.10;3.97;;;29.00;25.60;;;;;;5086211;28;20647;-75
2022/07/20 08:00:52;;;;;;;8.83;4.23;;;29.10;26.70;;;;;;5084890;28;20550;-73
2022/07/20 08:03:38;;;;;;;5.73;4.00;;;29.20;27.50;;;;;;5082664;28;20840;-76
2022/07/20 08:06:24;;;;;;;15.23;4.77;;;29.40;28.20;;;;;;5087077;28;20823;-77
2022/07/20 08:09:09;;;;;;;15.40;4.10;;;29.50;25.80;;;;;;5086209;28;20442;-76
2022/07/20 08:11:55;;;;;;;19.63;5.63;;;29.50;26.30;;;;;;5089210;28;20449;-74
2022/07/20 08:14:41;;;;;;;7.00;4.87;;;29.50;26.40;;;;;;5087896;28;20516;-73
2022/07/20 08:17:28;;;;;;;5.80;3.80;;;29.60;26.60;;;;;;5087604;28;20441;-75
2022/07/20 08:20:14;;;;;;;7.13;4.40;;;29.70;26.00;;;;;;5084745;28;21292;-74
2022/07/20 08:23:00;;;;;;;12.00;4.60;;;29.70;28.00;;;;;;5082839;28;20527;-74
2022/07/20 08:25:46;;;;;;;6.50;4.70;;;29.90;25.70;;;;;;5088254;28;20445;-74
2022/07/20 08:28:31;;;;;;;6.93;4.77;;;29.90;24.50;;;;;;5092024;28;20438;-73
2022/07/20 08:31:17;;;;;;;12.70;5.00;;;30.00;25.00;;;;;;5090507;28;20442;-75
2022/07/20 08:34:04;;;;;;;10.13;3.83;;;30.00;26.10;;;;;;5087098;28;20465;-74
2022/07/20 08:36:50;;;;;;;10.83;4.83;;;30.10;27.40;;;;;;5091717;28;20441;-74
2022/07/20 08:39:36;;;;;;;8.10;4.20;;;30.20;27.30;;;;;;5092682;28;20460;-73
2022/07/20 08:42:23;;;;;;;5.70;4.03;;;30.30;27.10;;;;;;5090471;28;20477;-75
2022/07/20 08:45:10;;;;;;;11.30;4.37;;;30.40;25.10;;;;;;5093432;28;21070;-75
2022/07/20 08:47:58;;;;;;;5.40;4.47;;;30.50;25.50;;;;;;5090158;28;20801;-74
2022/07/20 08:50:46;;;;;;;7.93;5.23;;;30.60;24.60;;;;;;5089853;28;20516;-75
2022/07/20 08:53:31;;;;;;;14.53;4.63;;;30.60;25.00;;;;;;5088666;28;21001;-75
2022/07/20 08:56:17;;;;;;;13.00;5.20;;;30.60;25.30;;;;;;5088870;28;20443;-74
2022/07/20 08:59:03;;;;;;;10.97;5.70;;;30.60;26.80;;;;;;5087906;28;20470;-73
2022/07/20 09:01:59;;;;;;;22.10;4.87;;;30.70;26.10;;;;;;5085963;28;20480;-71
2022/07/20 09:04:55;;;;;;;14.10;5.10;;;30.60;25.90;;;;;;5089398;28;20461;-73
2022/07/20 09:07:44;;;;;;;12.63;5.90;;;30.70;26.80;;;;;;5090971;28;20457;-73
2022/07/20 09:10:32;;;;;;;13.53;4.90;;;30.80;25.20;;;;;;5090554;28;20437;-74
2022/07/20 09:13:19;;;;;;;7.13;4.83;;;30.80;25.10;;;;;;5087650;28;20477;-74
2022/07/20 09:16:05;;;;;;;5.90;4.37;;;30.90;25.30;;;;;;5089559;28;21013;-74
2022/07/20 09:18:55;;;;;;;10.20;5.47;;;30.90;24.90;;;;;;5090688;28;20570;-73
2022/07/20 09:21:41;;;;;;;13.50;5.50;;;31.00;24.90;;;;;;5083172;28;20636;-74
2022/07/20 09:24:28;;;;;;;10.60;5.00;;;31.00;24.70;;;;;;5090496;28;20608;-74
2022/07/20 09:27:14;;;;;;;11.70;5.10;;;31.10;24.50;;;;;;5087068;28;20592;-74
2022/07/20 09:30:05;;;;;;;7.20;4.27;;;31.20;23.20;;;;;;5088666;28;20445;-74
2022/07/20 09:32:54;;;;;;;11.90;5.03;;;31.30;25.00;;;;;;5085552;28;20454;-76
2022/07/20 09:35:39;;;;;;;8.20;5.20;;;31.30;23.50;;;;;;5092646;28;20529;-77
2022/07/20 09:38:34;;;;;;;9.00;5.00;;;31.40;22.20;;;;;;5092300;28;20934;-76
2022/07/20 09:41:26;;;;;;;7.63;5.30;;;31.50;23.00;;;;;;5089711;28;20422;-76
2022/07/20 09:44:21;;;;;;;8.07;5.23;;;31.60;23.20;;;;;;5089462;28;20442;-75
2022/07/20 09:47:12;;;;;;;10.07;5.20;;;31.60;22.20;;;;;;5108918;22;20529;-78
2022/07/20 09:49:58;;;;;;;7.90;5.63;;;31.60;21.20;;;;;;5082054;28;20426;-78
2022/07/20 09:52:43;;;;;;;6.93;5.70;;;31.50;22.00;;;;;;5083511;28;20450;-79
2022/07/20 09:55:31;;;;;;;16.40;5.30;;;31.50;21.30;;;;;;5081873;28;21037;-79
2022/07/20 09:58:24;;;;;;;10.70;5.10;;;31.60;20.70;;;;;;5083824;28;20528;-79
2022/07/20 10:01:10;;;;;;;12.47;5.33;;;31.60;21.20;;;;;;5081870;28;20943;-77
2022/07/20 10:03:59;;;;;;;6.33;5.00;;;31.70;21.20;;;;;;5084131;28;20640;-76
2022/07/20 10:06:47;;;;;;;11.10;5.40;;;31.70;21.80;;;;;;5090811;28;20516;-77
2022/07/20 10:09:33;;;;;;;11.47;5.27;;;31.80;21.40;;;;;;5088680;28;20414;-76
2022/07/20 10:12:19;;;;;;;6.53;5.20;;;32.00;21.40;;;;;;5082831;28;21076;-77
2022/07/20 10:15:12;;;;;;;8.67;5.77;;;32.00;21.10;;;;;;5091266;28;20426;-76
2022/07/20 10:17:58;;;;;;;14.17;6.13;;;32.10;20.40;;;;;;5075488;28;20443;-75
2022/07/20 10:20:44;;;;;;;17.53;5.93;;;32.20;20.60;;;;;;5085609;28;20425;-74
2022/07/20 10:23:31;;;;;;;8.23;4.93;;;32.30;19.30;;;;;;5084027;28;20422;-76
2022/07/20 10:26:26;;;;;;;7.73;5.80;;;32.30;21.00;;;;;;5078110;28;20422;-76
2022/07/20 10:29:26;;;;;;;8.73;5.07;;;32.30;20.30;;;;;;5086045;28;20448;-77
2022/07/20 10:32:17;;;;;;;7.80;5.70;;;32.30;18.80;;;;;;5085021;28;20450;-77
2022/07/20 10:35:24;;;;;;;9.87;5.80;;;32.30;19.50;;;;;;5082453;28;20937;-77
2022/07/20 10:38:11;;;;;;;9.10;4.80;;;32.20;18.70;;;;;;5090534;28;20495;-76
2022/07/20 10:44:32;;;;;;;8.03;5.30;;;32.30;19.20;;;;;;5081844;28;20460;-77
2022/07/20 10:47:42;;;;;;;9.33;5.10;;;32.40;19.70;;;;;;5085021;28;20818;-77
2022/07/20 10:50:32;;;;;;;9.80;4.60;;;32.50;18.50;;;;;;5084226;28;20449;-76
2022/07/20 10:53:32;;;;;;;6.37;5.23;;;32.60;19.30;;;;;;5076593;28;20414;-76
2022/07/20 10:56:30;;;;;;;13.73;4.93;;;32.70;17.60;;;;;;5083602;28;20433;-77
2022/07/20 10:59:16;;;;;;;8.50;4.57;;;32.80;18.20;;;;;;5080107;28;20515;-77
2022/07/20 11:02:02;;;;;;;11.90;4.67;;;32.90;17.50;;;;;;5080517;28;20974;-77
2022/07/20 11:04:49;;;;;;;11.33;4.73;;;33.00;19.30;;;;;;5083807;28;20435;-77
2022/07/20 11:07:36;;;;;;;14.60;5.47;;;33.20;17.70;;;;;;5086763;28;20930;-77
2022/07/20 11:10:24;;;;;;;5.77;4.90;;;33.10;18.10;;;;;;5083986;28;20442;-76
2022/07/20 11:13:12;;;;;;;12.73;5.00;;;33.10;17.40;;;;;;5085939;28;20527;-77
2022/07/20 11:16:00;;;;;;;7.13;5.27;;;33.20;17.20;;;;;;5080945;28;21259;-77
2022/07/20 11:18:47;;;;;;;12.10;5.67;;;33.20;18.70;;;;;;5081328;28;20486;-77
2022/07/20 11:21:38;;;;;;;8.63;4.83;;;33.30;19.70;;;;;;5077280;28;20486;-75
2022/07/20 11:24:25;;;;;;;6.43;5.10;;;33.50;18.60;;;;;;5081810;28;20458;-77
2022/07/20 11:27:16;;;;;;;10.93;5.23;;;33.50;17.00;;;;;;5080786;28;20826;-77
2022/07/20 11:30:02;;;;;;;13.00;5.97;;;33.60;18.40;;;;;;5077455;28;20434;-77
2022/07/20 11:32:54;;;;;;;7.80;5.30;;;33.70;17.40;;;;;;5081239;28;20451;-77
2022/07/20 11:35:39;;;;;;;15.83;5.73;;;33.80;18.00;;;;;;5081781;28;20438;-77
2022/07/20 11:38:35;;;;;;;9.10;4.83;;;33.80;19.10;;;;;;5076235;28;20466;-75
2022/07/20 11:41:23;;;;;;;10.70;5.10;;;34.00;17.90;;;;;;5078869;28;20584;-77
2022/07/20 11:44:17;;;;;;;8.10;5.40;;;34.00;18.10;;;;;;5080539;28;20585;-77
2022/07/20 11:47:02;;;;;;;6.13;4.60;;;34.10;17.20;;;;;;5082790;28;20538;-77
2022/07/20 11:49:48;;;;;;;8.33;4.63;;;34.20;17.00;;;;;;5084550;28;20958;-77
2022/07/20 11:52:41;;;;;;;12.23;5.57;;;34.20;16.10;;;;;;5086522;28;20449;-78
2022/07/20 11:55:38;;;;;;;16.93;6.07;;;34.30;16.40;;;;;;5083063;28;20454;-76
2022/07/20 11:58:26;;;;;;;8.20;5.53;;;34.50;15.70;;;;;;5078921;28;20490;-77
2022/07/20 12:01:15;;;;;;;7.80;4.77;;;34.50;16.50;;;;;;5079477;28;20441;-77
2022/07/20 12:04:04;;;;;;;10.77;5.80;;;34.50;15.20;;;;;;5085493;28;20445;-77
2022/07/20 12:06:53;;;;;;;16.73;5.50;;;34.50;15.30;;;;;;5089899;28;20442;-78
2022/07/20 12:09:39;;;;;;;14.63;5.77;;;34.50;15.40;;;;;;5091462;28;20811;-78
2022/07/20 12:12:47;;;;;;;8.80;5.13;;;34.50;17.00;;;;;;5090091;28;20443;-78
2022/07/20 12:15:33;;;;;;;13.33;6.27;;;34.60;16.30;;;;;;5091611;28;20486;-78
2022/07/20 12:18:33;;;;;;;8.13;5.70;;;34.70;16.30;;;;;;5085820;28;20600;-77
2022/07/20 12:21:24;;;;;;;7.93;6.77;;;34.90;16.40;;;;;;5084283;28;20438;-77
2022/07/20 12:24:10;;;;;;;7.93;6.00;;;34.90;15.20;;;;;;5085307;28;20467;-77
2022/07/20 12:27:05;;;;;;;12.33;7.57;;;34.90;16.40;;;;;;5089867;28;21345;-77
2022/07/20 12:29:53;;;;;;;15.40;6.80;;;34.90;16.50;;;;;;5081693;28;20465;-77
2022/07/20 12:32:38;;;;;;;12.80;7.23;;;34.90;16.70;;;;;;5092983;28;20440;-77
2022/07/20 12:35:24;;;;;;;12.47;7.63;;;34.90;18.30;;;;;;5083339;28;20462;-77
2022/07/20 12:38:10;;;;;;;11.50;7.07;;;35.00;17.10;;;;;;5083472;28;20457;-77
2022/07/20 12:40:56;;;;;;;21.13;8.37;;;35.10;17.90;;;;;;5083181;28;20507;-75
2022/07/20 12:43:43;;;;;;;9.53;7.53;;;35.20;17.20;;;;;;5081955;28;20854;-78
2022/07/20 12:46:30;;;;;;;15.07;8.10;;;35.30;17.80;;;;;;5087590;28;20596;-77
2022/07/20 12:49:20;;;;;;;11.50;7.90;;;35.40;16.80;;;;;;5088120;28;20453;-77
2022/07/20 12:52:06;;;;;;;9.17;8.27;;;35.40;18.10;;;;;;5085462;28;20437;-78
2022/07/20 12:54:52;;;;;;;17.40;8.10;;;35.40;18.50;;;;;;5080184;28;20461;-78
2022/07/20 12:57:38;;;;;;;12.60;7.73;;;35.50;18.30;;;;;;5080709;28;20719;-77
2022/07/20 13:00:23;;;;;;;11.77;7.73;;;35.60;17.60;;;;;;5087266;28;20472;-77
2022/07/20 13:03:11;;;;;;;12.17;7.70;;;35.60;17.40;;;;;;5081643;28;20441;-77
2022/07/20 13:05:56;;;;;;;13.73;9.27;;;35.70;18.30;;;;;;5090925;28;20499;-78
2022/07/20 13:08:43;;;;;;;12.13;8.87;;;35.90;18.80;;;;;;5088008;28;20454;-78
2022/07/20 13:11:29;;;;;;;19.03;8.93;;;36.00;19.00;;;;;;5082884;28;20427;-78
2022/07/20 13:14:17;;;;;;;14.47;9.30;;;36.10;17.20;;;;;;5085103;28;20430;-78
2022/07/20 13:17:03;;;;;;;14.43;8.87;;;36.10;17.10;;;;;;5087400;28;20454;-78
2022/07/20 13:19:51;;;;;;;16.97;9.37;;;36.20;17.50;;;;;;5089531;28;20572;-78
2022/07/20 13:22:36;;;;;;;18.50;9.50;;;36.20;17.10;;;;;;5083900;28;20430;-78
2022/07/20 13:25:23;;;;;;;15.80;10.27;;;36.20;17.10;;;;;;5093180;28;20425;-77
2022/07/20 13:28:11;;;;;;;27.57;9.83;;;36.30;16.60;;;;;;5083893;28;20951;-78
2022/07/20 13:30:58;;;;;;;13.23;10.70;;;36.30;17.40;;;;;;5090518;28;20505;-78
2022/07/20 13:33:43;;;;;;;15.30;10.47;;;36.40;18.00;;;;;;5091886;28;20425;-78
2022/07/20 13:36:31;;;;;;;10.57;9.33;;;36.40;16.50;;;;;;5083924;28;20421;-77
2022/07/20 13:39:17;;;;;;;12.93;8.83;;;36.30;17.10;;;;;;5088390;28;20526;-78
2022/07/20 13:42:02;;;;;;;14.77;10.07;;;36.30;17.30;;;;;;5091220;28;20429;-77
2022/07/20 13:44:48;;;;;;;11.77;9.47;;;36.50;18.00;;;;;;5094018;28;20434;-77
2022/07/20 13:47:34;;;;;;;10.50;9.40;;;36.70;17.70;;;;;;5079735;28;20458;-77
2022/07/20 13:50:20;;;;;;;16.20;9.70;;;36.60;17.40;;;;;;5087866;28;20445;-77
2022/07/20 13:53:07;;;;;;;13.57;9.77;;;36.70;17.80;;;;;;5085765;28;20568;-77
2022/07/20 13:55:54;;;;;;;16.83;10.03;;;36.50;17.90;;;;;;5091460;28;20898;-76
2022/07/20 13:58:40;;;;;;;17.93;9.70;;;36.40;17.90;;;;;;5079348;28;20464;-77
2022/07/20 14:01:26;;;;;;;13.20;10.30;;;36.00;18.00;;;;;;5086606;28;20426;-77
2022/07/20 14:04:14;;;;;;;17.23;10.47;;;35.80;19.80;;;;;;5075437;28;20902;-77
2022/07/20 14:07:02;;;;;;;12.30;10.80;;;35.50;19.30;;;;;;5082491;28;20445;-77
2022/07/20 14:09:49;;;;;;;21.70;11.60;;;35.50;20.30;;;;;;5089097;28;20442;-78
2022/07/20 14:12:35;;;;;;;13.50;11.30;;;35.50;20.70;;;;;;5089031;28;20561;-78
2022/07/20 14:15:21;;;;;;;17.80;10.93;;;35.40;20.90;;;;;;5093458;28;20426;-78
2022/07/20 14:18:06;;;;;;;21.03;9.93;;;35.40;20.80;;;;;;5082252;28;20958;-77
2022/07/20 14:20:52;;;;;;;13.70;11.60;;;35.30;21.90;;;;;;5085268;28;20486;-76
2022/07/20 14:23:38;;;;;;;13.93;10.53;;;35.20;20.50;;;;;;5081144;28;20487;-77
2022/07/20 14:26:25;;;;;;;21.23;12.23;;;35.10;22.20;;;;;;5082599;28;20850;-78
2022/07/20 14:29:11;;;;;;;20.43;11.57;;;35.00;21.90;;;;;;5085055;28;20449;-78
2022/07/20 14:31:57;;;;;;;15.07;11.50;;;34.90;22.30;;;;;;5083264;28;20450;-78